createdAt,value
2018-04-02T00:00:57.650Z,101210.42
2018-04-02T00:02:02.781Z,101214.75
2018-04-02T00:03:08.031Z,101211.19
2018-04-02T00:04:12.951Z,101208.05
2018-04-02T00:05:17.821Z,101202.75
2018-04-02T00:06:23.023Z,101206.22
2018-04-02T00:07:28.106Z,101204.45
2018-04-02T00:08:32.847Z,101200.09
2018-04-02T00:09:38.667Z,101202.72
2018-04-02T00:10:44.458Z,101199.22
2018-04-02T00:11:49.868Z,101204.47
2018-04-02T00:12:54.707Z,101204.50
2018-04-02T00:13:59.775Z,101195.29
2018-04-02T00:15:06.239Z,101201.73
2018-04-02T00:16:11.769Z,101201.54
2018-04-02T00:17:17.449Z,101201.20
2018-04-02T00:18:22.385Z,101201.14
2018-04-02T00:19:27.250Z,101195.01
2018-04-02T00:20:33.526Z,101193.58
2018-04-02T00:21:38.698Z,101187.78
2018-04-02T00:22:44.336Z,101194.80
2018-04-02T00:23:49.569Z,101194.14
2018-04-02T00:24:54.768Z,101195.62
2018-04-02T00:26:00.024Z,101190.95
2018-04-02T00:27:05.417Z,101189.16
2018-04-02T00:28:10.652Z,101188.83
2018-04-02T00:29:15.770Z,101189.29
2018-04-02T00:30:21.176Z,101190.29
2018-04-02T00:31:26.209Z,101187.57
2018-04-02T00:32:31.375Z,101186.19
2018-04-02T00:33:37.122Z,101182.81
2018-04-02T00:34:43.091Z,101192.92
2018-04-02T00:35:48.648Z,101185.14
2018-04-02T00:36:53.971Z,101195.09
2018-04-02T00:37:59.307Z,101198.23
2018-04-02T00:39:04.294Z,101193.72
2018-04-02T00:40:09.397Z,101198.65
2018-04-02T00:41:14.389Z,101195.84
2018-04-02T00:42:19.789Z,101196.24
2018-04-02T00:43:24.565Z,101202.38
2018-04-02T00:44:29.726Z,101196.70
2018-04-02T00:45:34.879Z,101204.19
2018-04-02T00:46:39.894Z,101196.02
2018-04-02T00:47:44.953Z,101196.52
2018-04-02T00:48:50.530Z,101203.07
2018-04-02T00:49:55.675Z,101205.25
2018-04-02T00:51:00.831Z,101204.32
2018-04-02T00:52:06.329Z,101202.40
2018-04-02T00:53:11.342Z,101209.27
2018-04-02T00:54:16.557Z,101206.53
2018-04-02T00:55:22.410Z,101202.61
2018-04-02T00:56:28.269Z,101200.41
2018-04-02T00:57:33.940Z,101204.19
2018-04-02T00:58:39.172Z,101203.61
2018-04-02T00:59:45.127Z,101201.75
2018-04-02T01:00:50.764Z,101199.96
2018-04-02T01:01:57.390Z,101212.23
2018-04-02T01:03:02.788Z,101208.84
2018-04-02T01:04:08.500Z,101207.58
2018-04-02T01:05:13.848Z,101209.64
2018-04-02T01:06:18.978Z,101209.61
2018-04-02T01:07:23.910Z,101209.06
2018-04-02T01:08:29.698Z,101211.69
2018-04-02T01:09:35.443Z,101209.94
2018-04-02T01:10:40.595Z,101198.59
2018-04-02T01:11:46.556Z,101205.20
2018-04-02T01:12:52.028Z,101200.01
2018-04-02T01:13:57.114Z,101203.92
2018-04-02T01:15:04.295Z,101193.05
2018-04-02T01:16:09.635Z,101195.74
2018-04-02T01:17:14.951Z,101199.72
2018-04-02T01:18:20.088Z,101198.22
2018-04-02T01:19:25.169Z,101202.38
2018-04-02T01:20:30.627Z,101201.13
2018-04-02T01:21:35.602Z,101199.16
2018-04-02T01:22:40.712Z,101200.50
2018-04-02T01:23:45.790Z,101198.98
2018-04-02T01:24:50.964Z,101197.89
2018-04-02T01:25:56.720Z,101201.83
2018-04-02T01:27:02.288Z,101194.44
2018-04-02T01:28:07.375Z,101197.13
2018-04-02T01:29:12.673Z,101199.36
2018-04-02T01:30:18.232Z,101192.14
2018-04-02T01:31:24.625Z,101194.74
2018-04-02T01:32:29.598Z,101198.91
2018-04-02T01:33:35.107Z,101197.48
2018-04-02T01:34:40.536Z,101195.25
2018-04-02T01:35:45.835Z,101196.40
2018-04-02T01:36:51.094Z,101192.42
2018-04-02T01:37:56.272Z,101191.91
2018-04-02T01:39:01.283Z,101190.38
2018-04-02T01:40:07.047Z,101190.59
2018-04-02T01:41:12.354Z,101189.86
2018-04-02T01:42:17.675Z,101189.11
2018-04-02T01:43:22.884Z,101177.44
2018-04-02T01:44:28.051Z,101182.30
2018-04-02T01:45:34.057Z,101181.00
2018-04-02T01:46:39.173Z,101180.55
2018-04-02T01:47:44.382Z,101177.44
2018-04-02T01:48:50.296Z,101181.80
2018-04-02T01:49:56.127Z,101182.03
2018-04-02T01:51:01.875Z,101184.20
2018-04-02T01:52:06.983Z,101183.31
2018-04-02T01:53:11.945Z,101180.25
2018-04-02T01:54:17.192Z,101177.17
2018-04-02T01:55:22.485Z,101178.98
2018-04-02T01:56:27.421Z,101177.41
2018-04-02T01:57:32.638Z,101174.03
2018-04-02T01:58:38.262Z,101170.58
2018-04-02T01:59:43.185Z,101168.58
2018-04-02T02:00:48.558Z,101175.77
2018-04-02T02:01:54.616Z,101177.94
2018-04-02T02:02:59.866Z,101181.90
2018-04-02T02:04:04.718Z,101181.05
2018-04-02T02:05:10.275Z,101181.70
2018-04-02T02:06:15.331Z,101182.19
2018-04-02T02:07:20.320Z,101185.63
2018-04-02T02:08:25.686Z,101183.39
2018-04-02T02:09:30.467Z,101173.65
2018-04-02T02:10:35.386Z,101178.94
2018-04-02T02:11:39.989Z,101180.41
2018-04-02T02:12:45.392Z,101174.59
2018-04-02T02:13:51.558Z,101177.31
2018-04-02T02:14:57.337Z,101176.59
2018-04-02T02:16:02.560Z,101178.20
2018-04-02T02:17:07.328Z,101178.23
2018-04-02T02:18:12.398Z,101184.56
2018-04-02T02:19:17.519Z,101178.36
2018-04-02T02:20:22.591Z,101166.44
2018-04-02T02:21:27.250Z,101173.58
2018-04-02T02:22:32.951Z,101171.28
2018-04-02T02:23:38.125Z,101178.03
2018-04-02T02:24:43.437Z,101175.25
2018-04-02T02:25:48.663Z,101167.61
2018-04-02T02:26:53.466Z,101167.88
2018-04-02T02:27:57.965Z,101163.36
2018-04-02T02:29:03.018Z,101169.84
2018-04-02T02:30:07.801Z,101168.09
2018-04-02T02:31:12.686Z,101164.75
2018-04-02T02:32:17.706Z,101165.87
2018-04-02T02:33:23.032Z,101166.55
2018-04-02T02:34:28.962Z,101169.27
2018-04-02T02:35:34.455Z,101162.20
2018-04-02T02:36:39.977Z,101168.25
2018-04-02T02:37:44.732Z,101161.31
2018-04-02T02:38:49.791Z,101164.58
2018-04-02T02:39:55.947Z,101158.72
2018-04-02T02:41:00.402Z,101159.77
2018-04-02T02:42:05.265Z,101165.13
2018-04-02T02:43:10.266Z,101160.27
2018-04-02T02:44:15.039Z,101163.25
2018-04-02T02:45:19.973Z,101162.41
2018-04-02T02:46:25.068Z,101165.98
2018-04-02T02:47:30.430Z,101164.66
2018-04-02T02:48:35.477Z,101163.05
2018-04-02T02:49:39.890Z,101158.98
2018-04-02T02:50:44.718Z,101153.33
2018-04-02T02:51:49.112Z,101157.27
2018-04-02T02:52:54.476Z,101150.30
2018-04-02T02:54:00.617Z,101157.25
2018-04-02T02:55:06.157Z,101152.85
2018-04-02T02:56:11.159Z,101151.21
2018-04-02T02:57:16.019Z,101148.18
2018-04-02T02:58:21.183Z,101154.80
2018-04-02T02:59:26.312Z,101145.70
2018-04-02T03:00:32.199Z,101147.89
2018-04-02T03:01:37.468Z,101150.55
2018-04-02T03:02:41.994Z,101144.52
2018-04-02T03:03:46.943Z,101133.22
2018-04-02T03:04:52.655Z,101136.63
2018-04-02T03:05:58.123Z,101139.56
2018-04-02T03:07:02.574Z,101139.88
2018-04-02T03:08:07.641Z,101140.38
2018-04-02T03:09:12.727Z,101139.16
2018-04-02T03:10:18.050Z,101139.12
2018-04-02T03:11:23.084Z,101137.63
2018-04-02T03:12:28.148Z,101146.71
2018-04-02T03:13:33.518Z,101148.29
2018-04-02T03:14:38.079Z,101144.22
2018-04-02T03:15:43.072Z,101145.40
2018-04-02T03:16:47.664Z,101152.34
2018-04-02T03:17:53.390Z,101146.58
2018-04-02T03:18:59.234Z,101148.19
2018-04-02T03:20:04.153Z,101143.29
2018-04-02T03:21:08.866Z,101139.25
2018-04-02T03:22:13.208Z,101138.36
2018-04-02T03:23:18.126Z,101144.19
2018-04-02T03:24:22.901Z,101141.17
2018-04-02T03:25:28.398Z,101140.77
2018-04-02T03:26:33.593Z,101137.23
2018-04-02T03:27:38.398Z,101144.62
2018-04-02T03:28:42.865Z,101136.70
2018-04-02T03:29:47.845Z,101143.65
2018-04-02T03:30:52.672Z,101147.09
2018-04-02T03:31:58.259Z,101140.70
2018-04-02T03:33:03.097Z,101149.05
2018-04-02T03:34:07.942Z,101148.14
2018-04-02T03:35:13.290Z,101141.70
2018-04-02T03:36:18.104Z,101144.23
2018-04-02T03:37:23.663Z,101139.75
2018-04-02T03:38:29.083Z,101143.63
2018-04-02T03:39:34.488Z,101137.13
2018-04-02T03:40:39.862Z,101141.91
2018-04-02T03:41:44.546Z,101138.86
2018-04-02T03:42:48.894Z,101140.70
2018-04-02T03:43:53.252Z,101135.70
2018-04-02T03:44:58.244Z,101137.75
2018-04-02T03:46:02.871Z,101138.42
2018-04-02T03:47:07.973Z,101136.25
2018-04-02T03:48:13.187Z,101132.85
2018-04-02T03:49:18.185Z,101133.67
2018-04-02T03:50:23.114Z,101130.38
2018-04-02T03:51:27.929Z,101132.89
2018-04-02T03:52:32.266Z,101130.59
2018-04-02T03:53:37.206Z,101130.02
2018-04-02T03:54:42.192Z,101130.69
2018-04-02T03:55:47.850Z,101131.86
2018-04-02T03:56:53.028Z,101131.71
2018-04-02T03:57:59.207Z,101136.39
2018-04-02T03:59:04.598Z,101131.98
2018-04-02T04:00:09.642Z,101125.88
2018-04-02T04:01:15.456Z,101122.47
2018-04-02T04:02:19.820Z,101130.86
2018-04-02T04:03:24.485Z,101124.89
2018-04-02T04:04:30.000Z,101122.27
2018-04-02T04:05:34.949Z,101123.62
2018-04-02T04:06:39.372Z,101118.03
2018-04-02T04:07:44.053Z,101124.17
2018-04-02T04:08:48.795Z,101120.66
2018-04-02T04:09:53.891Z,101125.37
2018-04-02T04:11:00.808Z,101121.83
2018-04-02T04:12:05.201Z,101117.80
2018-04-02T04:13:10.102Z,101123.40
2018-04-02T04:14:14.705Z,101121.11
2018-04-02T04:15:19.263Z,101121.89
2018-04-02T04:16:23.606Z,101117.05
2018-04-02T04:17:28.934Z,101118.34
2018-04-02T04:18:33.572Z,101120.55
2018-04-02T04:19:38.806Z,101118.35
2018-04-02T04:20:43.467Z,101112.28
2018-04-02T04:21:48.025Z,101119.83
2018-04-02T04:22:52.784Z,101117.30
2018-04-02T04:23:57.809Z,101117.73
2018-04-02T04:25:02.560Z,101114.61
2018-04-02T04:26:07.239Z,101117.66
2018-04-02T04:27:11.834Z,101121.58
2018-04-02T04:29:23.326Z,101117.72
2018-04-02T04:30:28.576Z,101119.48
2018-04-02T04:31:33.551Z,101122.29
2018-04-02T04:32:39.578Z,101121.69
2018-04-02T04:33:44.630Z,101119.33
2018-04-02T04:34:49.753Z,101119.45
2018-04-02T04:35:55.563Z,101122.45
2018-04-02T04:37:00.112Z,101118.70
2018-04-02T04:38:06.624Z,101124.67
2018-04-02T04:39:11.268Z,101124.13
2018-04-02T04:40:16.861Z,101120.45
2018-04-02T04:41:21.638Z,101117.56
2018-04-02T04:42:26.257Z,101116.92
2018-04-02T04:43:31.379Z,101118.61
2018-04-02T04:44:36.461Z,101119.93
2018-04-02T04:45:42.186Z,101113.37
2018-04-02T04:46:47.464Z,101118.96
2018-04-02T04:47:52.503Z,101115.43
2018-04-02T04:48:57.749Z,101119.78
2018-04-02T04:50:03.787Z,101119.50
2018-04-02T04:51:09.273Z,101118.89
2018-04-02T04:52:14.000Z,101114.67
2018-04-02T04:53:18.929Z,101104.66
2018-04-02T04:54:24.196Z,101116.23
2018-04-02T04:55:28.538Z,101110.05
2018-04-02T04:56:33.388Z,101111.67
2018-04-02T04:57:37.874Z,101108.16
2018-04-02T04:58:43.365Z,101115.63
2018-04-02T04:59:48.442Z,101112.30
2018-04-02T05:00:53.574Z,101106.08
2018-04-02T05:01:58.972Z,101110.88
2018-04-02T05:03:03.921Z,101106.89
2018-04-02T05:04:08.852Z,101107.27
2018-04-02T05:05:14.132Z,101107.53
2018-04-02T05:06:18.869Z,101116.26
2018-04-02T05:07:23.642Z,101119.35
2018-04-02T05:08:28.051Z,101118.23
2018-04-02T05:09:32.685Z,101118.00
2018-04-02T05:10:37.254Z,101125.52
2018-04-02T05:11:41.850Z,101123.48
2018-04-02T05:12:46.485Z,101128.00
2018-04-02T05:13:51.978Z,101119.91
2018-04-02T05:14:56.408Z,101114.59
2018-04-02T05:16:02.558Z,101115.58
2018-04-02T05:17:07.008Z,101114.78
2018-04-02T05:18:12.839Z,101109.28
2018-04-02T05:19:18.004Z,101112.08
2018-04-02T05:20:22.389Z,101107.91
2018-04-02T05:21:27.074Z,101117.96
2018-04-02T05:22:31.832Z,101111.28
2018-04-02T05:23:36.244Z,101113.50
2018-04-02T05:24:40.871Z,101103.11
2018-04-02T05:25:45.864Z,101107.09
2018-04-02T05:26:50.657Z,101112.48
2018-04-02T05:27:55.224Z,101108.22
2018-04-02T05:29:00.771Z,101111.98
2018-04-02T05:30:08.367Z,101109.62
2018-04-02T05:31:13.624Z,101111.05
2018-04-02T05:32:18.336Z,101111.81
2018-04-02T05:33:23.526Z,101110.59
2018-04-02T05:34:28.371Z,101111.13
2018-04-02T05:35:33.432Z,101116.50
2018-04-02T05:36:38.510Z,101114.12
2018-04-02T05:37:43.634Z,101117.82
2018-04-02T05:38:48.804Z,101119.85
2018-04-02T05:39:53.910Z,101115.98
2018-04-02T05:40:59.151Z,101122.20
2018-04-02T05:42:04.660Z,101120.55
2018-04-02T05:43:10.554Z,101117.43
2018-04-02T05:44:15.487Z,101115.64
2018-04-02T05:45:21.328Z,101113.53
2018-04-02T05:46:26.887Z,101114.94
2018-04-02T05:47:31.272Z,101116.80
2018-04-02T05:48:36.148Z,101112.98
2018-04-02T05:49:41.908Z,101116.66
2018-04-02T05:50:47.001Z,101119.90
2018-04-02T05:51:52.332Z,101121.29
2018-04-02T05:52:56.830Z,101117.16
2018-04-02T05:54:02.874Z,101116.93
2018-04-02T05:55:08.823Z,101110.51
2018-04-02T05:56:13.890Z,101109.42
2018-04-02T05:57:18.414Z,101109.66
2018-04-02T05:58:23.917Z,101110.90
2018-04-02T05:59:29.045Z,101112.42
2018-04-02T06:00:34.748Z,101114.03
2018-04-02T06:01:40.018Z,101117.63
2018-04-02T06:02:44.628Z,101116.89
2018-04-02T06:03:49.792Z,101107.52
2018-04-02T06:04:55.105Z,101117.14
2018-04-02T06:05:59.661Z,101111.73
2018-04-02T06:07:04.337Z,101118.37
2018-04-02T06:08:11.673Z,101116.70
2018-04-02T06:09:16.935Z,101120.81
2018-04-02T06:10:22.101Z,101117.47
2018-04-02T06:11:27.121Z,101111.63
2018-04-02T06:12:31.648Z,101117.38
2018-04-02T06:13:37.249Z,101112.73
2018-04-02T06:14:42.577Z,101115.68
2018-04-02T06:15:48.005Z,101112.26
2018-04-02T06:16:52.974Z,101113.83
2018-04-02T06:17:57.965Z,101115.83
2018-04-02T06:19:03.648Z,101110.06
2018-04-02T06:20:10.469Z,101103.21
2018-04-02T06:21:16.122Z,101108.37
2018-04-02T06:22:21.375Z,101110.55
2018-04-02T06:23:26.675Z,101110.20
2018-04-02T06:24:31.341Z,101112.07
2018-04-02T06:25:36.434Z,101108.52
2018-04-02T06:26:41.467Z,101103.83
2018-04-02T06:27:46.833Z,101116.13
2018-04-02T06:28:51.879Z,101107.81
2018-04-02T06:29:57.303Z,101105.64
2018-04-02T06:31:02.549Z,101109.23
2018-04-02T06:32:07.784Z,101106.89
2018-04-02T06:33:14.292Z,101106.23
2018-04-02T06:34:19.924Z,101110.42
2018-04-02T06:35:25.510Z,101105.97
2018-04-02T06:36:30.291Z,101101.19
2018-04-02T06:37:35.248Z,101102.50
2018-04-02T06:38:40.777Z,101101.63
2018-04-02T06:39:45.979Z,101099.94
2018-04-02T06:40:50.914Z,101101.14
2018-04-02T06:41:55.494Z,101096.45
2018-04-02T06:43:01.675Z,101098.37
2018-04-02T06:44:08.285Z,101097.18
2018-04-02T06:45:15.896Z,101101.81
2018-04-02T06:46:20.991Z,101100.62
2018-04-02T06:47:25.950Z,101098.66
2018-04-02T06:48:31.319Z,101102.11
2018-04-02T06:49:36.393Z,101095.69
2018-04-02T06:50:42.194Z,101097.58
2018-04-02T06:51:47.574Z,101101.75
2018-04-02T06:52:53.196Z,101103.17
2018-04-02T06:53:58.200Z,101097.77
2018-04-02T06:55:04.388Z,101096.72
2018-04-02T06:56:10.401Z,101099.06
2018-04-02T06:57:15.871Z,101098.76
2018-04-02T06:58:21.139Z,101094.55
2018-04-02T06:59:26.235Z,101098.45
2018-04-02T07:00:31.800Z,101096.23
2018-04-02T07:01:36.956Z,101096.73
2018-04-02T07:02:42.086Z,101095.41
2018-04-02T07:03:47.567Z,101095.85
2018-04-02T07:04:52.782Z,101100.70
2018-04-02T07:05:57.923Z,101094.44
2018-04-02T07:07:03.196Z,101100.04
2018-04-02T07:08:09.014Z,101098.66
2018-04-02T07:09:15.206Z,101102.54
2018-04-02T07:10:20.337Z,101104.03
2018-04-02T07:11:25.385Z,101104.60
2018-04-02T07:12:30.268Z,101104.23
2018-04-02T07:13:35.485Z,101106.41
2018-04-02T07:14:40.833Z,101107.17
2018-04-02T07:15:46.528Z,101108.00
2018-04-02T07:16:51.952Z,101108.02
2018-04-02T07:17:57.209Z,101102.30
2018-04-02T07:19:02.472Z,101111.00
2018-04-02T07:20:07.945Z,101108.82
2018-04-02T07:21:14.021Z,101106.18
2018-04-02T07:22:19.567Z,101106.84
2018-04-02T07:23:24.894Z,101093.64
2018-04-02T07:24:30.085Z,101099.73
2018-04-02T07:25:35.337Z,101097.05
2018-04-02T07:26:40.428Z,101093.98
2018-04-02T07:27:45.603Z,101093.56
2018-04-02T07:28:50.937Z,101094.09
2018-04-02T07:29:56.230Z,101087.91
2018-04-02T07:31:01.582Z,101084.38
2018-04-02T07:32:06.568Z,101090.53
2018-04-02T07:33:11.678Z,101102.00
2018-04-02T07:34:17.221Z,101097.92
2018-04-02T07:35:22.191Z,101098.86
2018-04-02T07:36:27.051Z,101090.54
2018-04-02T07:37:32.090Z,101084.38
2018-04-02T07:38:37.719Z,101091.45
2018-04-02T07:39:42.739Z,101098.95
2018-04-02T07:40:48.267Z,101092.30
2018-04-02T07:41:53.334Z,101082.83
2018-04-02T07:42:58.404Z,101096.83
2018-04-02T07:44:03.459Z,101088.12
2018-04-02T07:45:08.832Z,101084.58
2018-04-02T07:46:13.989Z,101096.09
2018-04-02T07:47:19.613Z,101093.46
2018-04-02T07:48:25.801Z,101094.41
2018-04-02T07:49:31.059Z,101094.02
2018-04-02T07:50:36.242Z,101094.95
2018-04-02T07:51:41.373Z,101088.25
2018-04-02T07:52:46.550Z,101091.41
2018-04-02T07:55:08.489Z,101085.90
2018-04-02T07:56:13.899Z,101085.47
2018-04-02T07:57:20.002Z,101088.86
2018-04-02T07:58:25.789Z,101082.92
2018-04-02T07:59:31.088Z,101087.39
2018-04-02T08:00:37.172Z,101087.43
2018-04-02T08:01:42.532Z,101077.98
2018-04-02T08:02:48.286Z,101074.95
2018-04-02T08:03:54.353Z,101074.05
2018-04-02T08:05:00.080Z,101075.09
2018-04-02T08:06:05.162Z,101066.79
2018-04-02T08:07:10.637Z,101070.30
2018-04-02T08:08:16.864Z,101073.34
2018-04-02T08:09:22.669Z,101076.74
2018-04-02T08:10:27.979Z,101084.44
2018-04-02T08:11:33.339Z,101077.36
2018-04-02T08:12:38.305Z,101071.34
2018-04-02T08:13:43.475Z,101076.63
2018-04-02T08:14:48.360Z,101074.69
2018-04-02T08:15:53.428Z,101075.50
2018-04-02T08:16:58.218Z,101076.70
2018-04-02T08:18:03.180Z,101072.59
2018-04-02T08:19:08.186Z,101076.42
2018-04-02T08:20:13.210Z,101079.64
2018-04-02T08:21:18.191Z,101073.45
2018-04-02T08:22:23.477Z,101070.84
2018-04-02T08:23:28.413Z,101079.09
2018-04-02T08:24:33.210Z,101065.75
2018-04-02T08:25:38.443Z,101071.73
2018-04-02T08:26:43.040Z,101077.51
2018-04-02T08:27:48.312Z,101068.35
2018-04-02T08:28:53.731Z,101072.94
2018-04-02T08:29:58.444Z,101071.67
2018-04-02T08:31:03.788Z,101066.97
2018-04-02T08:32:09.368Z,101061.42
2018-04-02T08:33:14.228Z,101061.18
2018-04-02T08:34:19.879Z,101059.18
2018-04-02T08:35:25.566Z,101051.86
2018-04-02T08:36:30.352Z,101057.41
2018-04-02T08:37:35.463Z,101056.24
2018-04-02T08:38:40.493Z,101057.09
2018-04-02T08:39:45.920Z,101046.27
2018-04-02T08:40:51.118Z,101049.09
2018-04-02T08:41:56.441Z,101046.41
2018-04-02T08:43:01.729Z,101041.70
2018-04-02T08:44:06.550Z,101052.29
2018-04-02T08:45:13.037Z,101046.39
2018-04-02T08:46:18.167Z,101044.73
2018-04-02T08:47:23.569Z,101052.02
2018-04-02T08:48:29.878Z,101048.91
2018-04-02T08:49:34.763Z,101058.49
2018-04-02T08:50:39.421Z,101063.81
2018-04-02T08:51:44.269Z,101050.95
2018-04-02T08:52:49.369Z,101044.63
2018-04-02T08:53:54.193Z,101050.28
2018-04-02T08:54:59.076Z,101046.87
2018-04-02T08:56:04.169Z,101042.60
2018-04-02T08:57:09.114Z,101039.75
2018-04-02T08:58:14.044Z,101043.49
2018-04-02T08:59:19.508Z,101042.61
2018-04-02T09:00:24.804Z,101044.89
2018-04-02T09:01:29.638Z,101046.58
2018-04-02T09:02:35.179Z,101041.44
2018-04-02T09:03:40.051Z,101042.32
2018-04-02T09:04:44.779Z,101043.17
2018-04-02T09:05:49.549Z,101039.16
2018-04-02T09:06:54.475Z,101042.41
2018-04-02T09:07:59.706Z,101041.08
2018-04-02T09:09:05.230Z,101038.84
2018-04-02T09:10:09.964Z,101034.41
2018-04-02T09:11:14.646Z,101032.05
2018-04-02T09:12:19.439Z,101035.34
2018-04-02T09:13:25.220Z,101030.78
2018-04-02T09:14:30.494Z,101028.89
2018-04-02T09:15:35.493Z,101027.20
2018-04-02T09:16:40.210Z,101021.58
2018-04-02T09:17:45.507Z,101021.28
2018-04-02T09:18:50.795Z,101014.63
2018-04-02T09:19:55.998Z,101012.27
2018-04-02T09:21:00.772Z,101010.64
2018-04-02T09:22:05.537Z,101002.45
2018-04-02T09:23:10.654Z,101000.41
2018-04-02T09:24:15.525Z,101000.53
2018-04-02T09:25:20.575Z,101000.72
2018-04-02T09:26:25.748Z,101003.96
2018-04-02T09:27:31.217Z,100999.28
2018-04-02T09:28:35.866Z,101002.94
2018-04-02T09:29:40.706Z,100994.47
2018-04-02T09:30:45.902Z,100998.48
2018-04-02T09:31:50.749Z,100998.88
2018-04-02T09:32:56.360Z,100993.71
2018-04-02T09:34:01.125Z,100989.69
2018-04-02T09:35:05.991Z,100985.36
2018-04-02T09:36:10.757Z,100987.13
2018-04-02T09:37:15.779Z,100981.58
2018-04-02T09:38:20.682Z,100975.80
2018-04-02T09:39:26.067Z,100972.07
2018-04-02T09:40:31.132Z,100973.82
2018-04-02T09:41:35.931Z,100971.05
2018-04-02T09:42:40.629Z,100976.27
2018-04-02T09:43:45.305Z,100966.06
2018-04-02T09:44:50.101Z,100964.85
2018-04-02T09:45:55.714Z,100964.26
2018-04-02T09:47:01.079Z,100972.58
2018-04-02T09:48:06.051Z,100971.12
2018-04-02T09:49:10.918Z,100972.45
2018-04-02T09:50:16.225Z,100971.36
2018-04-02T09:51:21.079Z,100967.23
2018-04-02T09:52:25.892Z,100971.31
2018-04-02T09:53:30.866Z,100970.52
2018-04-02T09:54:36.915Z,100963.31
2018-04-02T09:55:41.946Z,100976.59
2018-04-02T09:56:47.586Z,100965.22
2018-04-02T09:57:52.280Z,100967.59
2018-04-02T09:58:57.007Z,100967.84
2018-04-02T10:00:01.760Z,100974.38
2018-04-02T10:01:11.065Z,100961.25
2018-04-02T10:02:16.689Z,100956.06
2018-04-02T10:03:25.860Z,100953.44
2018-04-02T10:04:31.871Z,100946.16
2018-04-02T10:05:38.005Z,100958.84
2018-04-02T10:06:42.822Z,100948.34
2018-04-02T10:07:47.648Z,100948.75
2018-04-02T10:08:52.844Z,100946.05
2018-04-02T10:09:57.602Z,100939.82
2018-04-02T10:11:02.293Z,100935.48
2018-04-02T10:12:07.087Z,100935.45
2018-04-02T10:13:12.226Z,100932.22
2018-04-02T10:14:17.309Z,100944.10
2018-04-02T10:15:23.009Z,100940.15
2018-04-02T10:16:27.904Z,100931.15
2018-04-02T10:17:32.943Z,100933.00
2018-04-02T10:18:37.752Z,100936.23
2018-04-02T10:19:43.607Z,100947.95
2018-04-02T10:20:48.699Z,100944.58
2018-04-02T10:21:54.156Z,100941.92
2018-04-02T10:22:59.091Z,100934.63
2018-04-02T10:24:03.968Z,100936.61
2018-04-02T10:25:08.692Z,100936.81
2018-04-02T10:26:13.434Z,100930.33
2018-04-02T10:27:18.093Z,100929.66
2018-04-02T10:28:23.169Z,100921.37
2018-04-02T10:29:27.885Z,100923.38
2018-04-02T10:30:32.804Z,100927.66
2018-04-02T10:31:38.117Z,100923.67
2018-04-02T10:32:43.216Z,100916.75
2018-04-02T10:33:48.132Z,100923.52
2018-04-02T10:34:53.270Z,100917.56
2018-04-02T10:35:58.117Z,100912.11
2018-04-02T10:37:02.884Z,100910.80
2018-04-02T10:38:07.845Z,100904.92
2018-04-02T10:39:12.766Z,100902.23
2018-04-02T10:40:17.557Z,100909.64
2018-04-02T10:41:22.419Z,100910.67
2018-04-02T10:42:27.842Z,100908.79
2018-04-02T10:43:33.510Z,100907.22
2018-04-02T10:44:38.851Z,100908.88
2018-04-02T10:45:44.118Z,100901.78
2018-04-02T10:46:49.111Z,100909.80
2018-04-02T10:47:54.269Z,100899.71
2018-04-02T10:48:59.645Z,100904.39
2018-04-02T10:50:04.594Z,100893.61
2018-04-02T10:51:09.532Z,100895.96
2018-04-02T10:52:14.768Z,100894.37
2018-04-02T10:53:19.543Z,100899.84
2018-04-02T10:54:24.459Z,100894.95
2018-04-02T10:55:29.251Z,100893.21
2018-04-02T10:56:34.803Z,100894.37
2018-04-02T10:57:40.388Z,100890.31
2018-04-02T10:58:45.539Z,100892.16
2018-04-02T10:59:50.454Z,100888.13
2018-04-02T11:00:55.318Z,100890.97
2018-04-02T11:02:00.612Z,100889.04
2018-04-02T11:03:05.345Z,100885.02
2018-04-02T11:04:09.949Z,100883.23
2018-04-02T11:05:14.741Z,100886.52
2018-04-02T11:06:19.759Z,100884.39
2018-04-02T11:07:24.647Z,100874.99
2018-04-02T11:08:29.458Z,100882.43
2018-04-02T11:09:34.739Z,100877.25
2018-04-02T11:10:39.596Z,100872.77
2018-04-02T11:11:44.733Z,100873.66
2018-04-02T11:12:49.959Z,100875.31
2018-04-02T11:13:54.821Z,100872.02
2018-04-02T11:14:59.568Z,100872.65
2018-04-02T11:16:05.258Z,100872.09
2018-04-02T11:17:09.922Z,100869.43
2018-04-02T11:18:14.886Z,100865.59
2018-04-02T11:19:19.750Z,100869.09
2018-04-02T11:20:24.507Z,100867.44
2018-04-02T11:21:29.371Z,100864.64
2018-04-02T11:22:34.350Z,100859.88
2018-04-02T11:23:40.713Z,100851.95
2018-04-02T11:24:46.175Z,100856.50
2018-04-02T11:25:50.988Z,100859.73
2018-04-02T11:26:55.759Z,100854.55
2018-04-02T11:28:00.721Z,100856.03
2018-04-02T11:29:05.842Z,100856.58
2018-04-02T11:31:20.710Z,100855.24
2018-04-02T11:32:26.012Z,100848.98
2018-04-02T11:33:30.990Z,100849.38
2018-04-02T11:34:35.737Z,100851.02
2018-04-02T11:35:40.428Z,100853.61
2018-04-02T11:36:45.060Z,100847.91
2018-04-02T11:37:49.725Z,100841.30
2018-04-02T11:38:54.473Z,100843.45
2018-04-02T11:39:59.212Z,100834.40
2018-04-02T11:41:04.003Z,100833.53
2018-04-02T11:42:08.572Z,100832.77
2018-04-02T11:43:13.641Z,100829.66
2018-04-02T11:44:18.384Z,100826.50
2018-04-02T11:45:23.162Z,100822.50
2018-04-02T11:46:27.929Z,100820.61
2018-04-02T11:47:32.572Z,100823.13
2018-04-02T11:48:37.391Z,100829.58
2018-04-02T11:49:42.353Z,100827.39
2018-04-02T11:50:47.208Z,100830.34
2018-04-02T11:51:52.315Z,100824.70
2018-04-02T11:52:57.474Z,100820.52
2018-04-02T11:54:02.482Z,100830.31
2018-04-02T11:55:07.467Z,100829.39
2018-04-02T11:56:12.546Z,100827.41
2018-04-02T11:57:17.276Z,100818.83
2018-04-02T11:58:22.416Z,100819.96
2018-04-02T11:59:27.154Z,100821.07
2018-04-02T12:00:32.587Z,100817.03
2018-04-02T12:01:37.924Z,100816.39
2018-04-02T12:02:44.188Z,100821.41
2018-04-02T12:03:50.253Z,100818.78
2018-04-02T12:04:55.429Z,100814.10
2018-04-02T12:06:00.162Z,100810.31
2018-04-02T12:07:04.993Z,100810.20
2018-04-02T12:08:10.673Z,100803.92
2018-04-02T12:09:15.847Z,100805.69
2018-04-02T12:10:20.944Z,100805.99
2018-04-02T12:11:25.916Z,100811.14
2018-04-02T12:12:30.733Z,100803.33
2018-04-02T12:13:36.090Z,100812.66
2018-04-02T12:14:41.152Z,100807.09
2018-04-02T12:15:46.028Z,100801.10
2018-04-02T12:16:51.373Z,100807.68
2018-04-02T12:17:56.231Z,100809.17
2018-04-02T12:19:00.961Z,100809.34
2018-04-02T12:20:05.935Z,100804.27
2018-04-02T12:21:10.984Z,100800.38
2018-04-02T12:22:15.598Z,100803.47
2018-04-02T12:23:20.745Z,100798.84
2018-04-02T12:24:25.591Z,100794.05
2018-04-02T12:25:30.281Z,100790.20
2018-04-02T12:26:35.038Z,100788.81
2018-04-02T12:27:40.422Z,100789.62